createdAt,value
2023-03-25T00:00:39.724Z,2.90
2023-03-25T00:03:27.590Z,2.70
2023-03-25T00:06:15.082Z,3.27
2023-03-25T00:09:02.295Z,3.37
2023-03-25T00:11:52.319Z,3.57
2023-03-25T00:14:39.604Z,3.00
2023-03-25T00:17:29.158Z,3.20
2023-03-25T00:20:16.247Z,3.17
2023-03-25T00:23:02.802Z,3.27
2023-03-25T00:25:52.929Z,3.53
2023-03-25T00:28:41.469Z,3.07
2023-03-25T00:31:28.348Z,3.57
2023-03-25T00:34:15.135Z,3.47
2023-03-25T00:37:02.451Z,2.80
2023-03-25T00:39:49.428Z,3.00
2023-03-25T00:42:35.913Z,3.23
2023-03-25T00:45:24.996Z,3.00
2023-03-25T00:48:11.640Z,3.07
2023-03-25T00:50:58.243Z,3.33
2023-03-25T00:53:45.166Z,3.40
2023-03-25T00:56:32.575Z,2.93
2023-03-25T00:59:19.038Z,3.47
2023-03-25T01:02:07.684Z,2.97
2023-03-25T01:04:55.184Z,2.93
2023-03-25T01:07:42.831Z,2.83
2023-03-25T01:10:29.270Z,2.87
2023-03-25T01:13:16.734Z,3.50
2023-03-25T01:16:08.133Z,3.63
2023-03-25T01:18:57.085Z,3.33
2023-03-25T01:21:45.444Z,2.53
2023-03-25T01:24:32.574Z,2.63
2023-03-25T01:27:19.215Z,2.53
2023-03-25T01:30:07.241Z,2.80
2023-03-25T01:32:53.837Z,3.43
2023-03-25T01:35:42.152Z,2.30
2023-03-25T01:38:30.502Z,2.50
2023-03-25T01:41:17.324Z,2.40
2023-03-25T01:44:09.133Z,2.57
2023-03-25T01:46:58.666Z,2.20
2023-03-25T01:49:47.542Z,2.40
2023-03-25T01:52:35.525Z,2.80
2023-03-25T01:55:24.220Z,2.57
2023-03-25T01:58:15.350Z,2.47
2023-03-25T02:01:03.832Z,2.23
2023-03-25T02:03:53.145Z,2.20
2023-03-25T02:06:44.195Z,2.43
2023-03-25T02:09:32.644Z,2.00
2023-03-25T02:12:19.490Z,2.20
2023-03-25T02:15:08.830Z,2.23
2023-03-25T02:18:17.616Z,1.93
2023-03-25T02:21:46.469Z,2.23
2023-03-25T02:24:58.063Z,2.10
2023-03-25T02:27:57.899Z,2.10
2023-03-25T02:31:11.624Z,1.90
2023-03-25T02:34:24.948Z,1.90
2023-03-25T02:37:47.047Z,2.27
2023-03-25T02:40:47.633Z,2.00
2023-03-25T02:43:41.519Z,2.20
2023-03-25T02:46:32.711Z,2.20
2023-03-25T02:49:25.901Z,2.00
2023-03-25T02:52:18.037Z,1.97
2023-03-25T02:55:10.541Z,2.10
2023-03-25T02:58:00.371Z,1.60
2023-03-25T03:00:47.656Z,2.00
2023-03-25T03:03:34.678Z,1.77
2023-03-25T03:06:23.453Z,1.70
2023-03-25T03:09:25.656Z,2.17
2023-03-25T03:12:26.223Z,1.73
2023-03-25T03:15:25.539Z,1.93
2023-03-25T03:18:19.511Z,1.60
2023-03-25T03:21:13.210Z,1.93
2023-03-25T03:24:06.903Z,2.03
2023-03-25T03:26:58.766Z,1.90
2023-03-25T03:29:47.518Z,1.80
2023-03-25T03:32:43.521Z,1.83
2023-03-25T03:35:34.932Z,1.70
2023-03-25T03:38:26.095Z,2.20
2023-03-25T03:41:17.444Z,1.60
2023-03-25T03:44:08.206Z,1.60
2023-03-25T03:46:59.230Z,2.37
2023-03-25T03:49:52.943Z,1.60
2023-03-25T03:52:45.249Z,1.80
2023-03-25T03:55:37.904Z,1.50
2023-03-25T03:58:30.789Z,1.73
2023-03-25T04:01:28.152Z,2.00
2023-03-25T04:04:17.370Z,2.53
2023-03-25T04:07:10.624Z,1.50
2023-03-25T04:10:04.605Z,1.80
2023-03-25T04:12:54.244Z,1.10
2023-03-25T04:15:42.095Z,2.13
2023-03-25T04:18:28.719Z,1.63
2023-03-25T04:21:17.746Z,1.70
2023-03-25T04:24:08.312Z,1.77
2023-03-25T04:26:57.725Z,1.60
2023-03-25T04:29:45.108Z,1.80
2023-03-25T04:32:32.883Z,1.63
2023-03-25T04:35:22.960Z,1.80
2023-03-25T04:38:10.170Z,2.10
2023-03-25T04:41:00.489Z,1.90
2023-03-25T04:43:47.042Z,2.10
2023-03-25T04:46:34.566Z,1.80
2023-03-25T04:49:23.107Z,2.20
2023-03-25T04:52:10.373Z,2.27
2023-03-25T04:54:57.359Z,1.83
2023-03-25T04:57:46.872Z,2.20
2023-03-25T05:00:33.943Z,1.70
2023-03-25T05:03:24.146Z,2.07
2023-03-25T05:06:11.484Z,1.80
2023-03-25T05:08:58.269Z,2.63
2023-03-25T05:11:45.176Z,1.60
2023-03-25T05:14:33.078Z,1.70
2023-03-25T05:17:19.689Z,1.83
2023-03-25T05:20:08.924Z,1.57
2023-03-25T05:22:57.641Z,1.70
2023-03-25T05:25:44.684Z,1.70
2023-03-25T05:28:31.422Z,1.60
2023-03-25T05:31:19.757Z,1.77
2023-03-25T05:34:06.856Z,1.50
2023-03-25T05:36:54.300Z,1.60
2023-03-25T05:39:40.996Z,1.50
2023-03-25T05:42:27.861Z,1.27
2023-03-25T05:45:16.003Z,1.50
2023-03-25T05:48:04.261Z,1.60
2023-03-25T05:50:51.004Z,1.50
2023-03-25T05:53:37.709Z,1.57
2023-03-25T05:56:24.456Z,1.60
2023-03-25T05:59:11.458Z,1.70
2023-03-25T06:01:57.962Z,1.90
2023-03-25T06:04:47.404Z,1.67
2023-03-25T06:07:33.821Z,1.60
2023-03-25T06:10:20.971Z,1.80
2023-03-25T06:13:07.585Z,1.67
2023-03-25T06:15:56.394Z,1.33
2023-03-25T06:18:43.086Z,1.20
2023-03-25T06:21:33.971Z,1.43
2023-03-25T06:24:20.498Z,1.30
2023-03-25T06:27:10.435Z,1.00
2023-03-25T06:29:57.331Z,1.60
2023-03-25T06:32:44.181Z,1.80
2023-03-25T06:35:30.858Z,1.40
2023-03-25T06:38:18.891Z,1.43
2023-03-25T06:41:25.400Z,1.00
2023-03-25T06:44:36.332Z,1.50
2023-03-25T06:47:43.397Z,1.23
2023-03-25T06:50:30.459Z,1.20
2023-03-25T06:53:18.433Z,1.30
2023-03-25T06:56:05.094Z,1.27
2023-03-25T06:58:51.516Z,1.40
2023-03-25T07:01:38.241Z,1.47
2023-03-25T07:04:25.068Z,1.10
2023-03-25T07:07:11.865Z,1.40
2023-03-25T07:10:00.463Z,1.20
2023-03-25T07:12:47.615Z,1.30
2023-03-25T07:15:33.955Z,1.07
2023-03-25T07:18:21.151Z,1.40
2023-03-25T07:21:08.425Z,1.33
2023-03-25T07:23:54.788Z,1.37
2023-03-25T07:26:42.885Z,1.20
2023-03-25T07:29:31.365Z,1.27
2023-03-25T07:32:18.181Z,1.23
2023-03-25T07:35:05.201Z,1.47
2023-03-25T07:37:51.803Z,1.30
2023-03-25T07:40:39.046Z,1.37
2023-03-25T07:43:26.779Z,1.30
2023-03-25T07:46:15.899Z,1.30
2023-03-25T07:49:02.693Z,1.03
2023-03-25T07:51:49.414Z,1.33
2023-03-25T07:54:36.114Z,1.33
2023-03-25T07:57:22.923Z,1.30
2023-03-25T08:00:12.760Z,1.10
2023-03-25T08:02:59.297Z,1.00
2023-03-25T08:05:47.966Z,1.50
2023-03-25T08:08:34.793Z,1.27
2023-03-25T08:11:22.173Z,1.20
2023-03-25T08:14:08.498Z,1.47
2023-03-25T08:16:56.678Z,1.30
2023-03-25T08:19:43.308Z,1.30
2023-03-25T08:22:30.066Z,1.10
2023-03-25T08:25:16.889Z,1.20
2023-03-25T08:28:03.772Z,1.30
2023-03-25T08:30:55.404Z,1.30
2023-03-25T08:33:43.580Z,1.77
2023-03-25T08:36:30.273Z,1.20
2023-03-25T08:39:17.474Z,1.37
2023-03-25T08:42:04.196Z,1.30
2023-03-25T08:44:51.018Z,1.37
2023-03-25T08:47:37.919Z,1.60
2023-03-25T08:50:26.299Z,1.23
2023-03-25T08:53:12.923Z,1.07
2023-03-25T08:56:00.338Z,1.10
2023-03-25T08:58:47.135Z,1.23
2023-03-25T09:01:35.203Z,1.30
2023-03-25T09:04:21.593Z,0.93
2023-03-25T09:07:12.670Z,1.23
2023-03-25T09:09:59.529Z,1.20
2023-03-25T09:12:46.256Z,1.10
2023-03-25T09:15:33.443Z,1.07
2023-03-25T09:18:20.229Z,1.13
2023-03-25T09:21:07.288Z,1.50
2023-03-25T09:23:55.192Z,1.20
2023-03-25T09:26:41.987Z,1.17
2023-03-25T09:29:29.690Z,1.10
2023-03-25T09:32:18.091Z,1.30
2023-03-25T09:35:04.785Z,1.27
2023-03-25T09:37:51.854Z,0.80
2023-03-25T09:40:42.206Z,1.20
2023-03-25T09:43:37.690Z,1.20
2023-03-25T09:46:25.078Z,1.37
2023-03-25T09:49:17.019Z,1.20
2023-03-25T09:52:04.176Z,1.30
2023-03-25T09:54:56.501Z,1.10
2023-03-25T09:57:49.236Z,1.37
2023-03-25T10:00:35.982Z,1.20
2023-03-25T10:03:28.643Z,1.17
2023-03-25T10:06:19.798Z,1.10
2023-03-25T10:09:19.359Z,1.10
2023-03-25T10:12:18.354Z,0.80
2023-03-25T10:15:18.171Z,1.30
2023-03-25T10:18:25.177Z,1.37
2023-03-25T10:21:17.698Z,1.10
2023-03-25T10:24:14.248Z,1.00
2023-03-25T10:27:03.984Z,1.30
2023-03-25T10:29:56.235Z,1.30
2023-03-25T10:32:48.341Z,1.33
2023-03-25T10:35:40.532Z,1.00
2023-03-25T10:38:30.237Z,1.10
2023-03-25T10:41:24.430Z,1.03
2023-03-25T10:44:11.547Z,1.00
2023-03-25T10:47:04.399Z,0.80
2023-03-25T10:49:55.317Z,1.10
2023-03-25T10:52:42.570Z,1.00
2023-03-25T10:55:34.892Z,1.10
2023-03-25T10:58:21.892Z,0.90
2023-03-25T11:01:13.291Z,1.13
2023-03-25T11:04:01.815Z,0.70
2023-03-25T11:06:55.479Z,1.00
2023-03-25T11:09:42.412Z,1.03
2023-03-25T11:12:42.193Z,1.20
2023-03-25T11:15:32.894Z,1.00
2023-03-25T11:18:23.330Z,0.93
2023-03-25T11:21:13.516Z,1.10
2023-03-25T11:24:02.193Z,0.97
2023-03-25T11:26:52.410Z,1.00
2023-03-25T11:29:39.437Z,0.90
2023-03-25T11:32:34.148Z,1.00
2023-03-25T11:35:27.063Z,0.63
2023-03-25T11:38:16.813Z,1.00
2023-03-25T11:41:05.152Z,1.10
2023-03-25T11:43:51.811Z,1.10
2023-03-25T11:46:44.258Z,0.80
2023-03-25T11:49:37.288Z,1.00
2023-03-25T11:52:27.473Z,1.00
2023-03-25T11:55:18.918Z,1.10
2023-03-25T11:58:08.863Z,1.00
2023-03-25T12:01:03.462Z,1.17
2023-03-25T12:03:50.015Z,1.30
2023-03-25T12:06:36.720Z,1.03
2023-03-25T12:09:23.650Z,1.33
2023-03-25T12:12:36.953Z,1.20
2023-03-25T12:15:39.011Z,1.03
2023-03-25T12:18:59.609Z,1.10
2023-03-25T12:22:08.448Z,0.90
2023-03-25T12:25:09.663Z,1.10
2023-03-25T12:28:41.212Z,0.83
2023-03-25T12:31:40.928Z,1.20
2023-03-25T12:34:39.613Z,1.13
2023-03-25T12:37:37.710Z,1.23
2023-03-25T12:40:37.276Z,1.20
2023-03-25T12:43:33.502Z,1.43
2023-03-25T12:46:30.402Z,1.10
2023-03-25T12:49:34.596Z,1.10
2023-03-25T12:52:28.844Z,1.10
2023-03-25T12:55:32.636Z,1.20
2023-03-25T12:58:40.064Z,1.07
2023-03-25T13:01:36.965Z,0.90
2023-03-25T13:04:44.394Z,1.47
2023-03-25T13:07:36.603Z,1.10
2023-03-25T13:10:26.421Z,1.10
2023-03-25T13:13:18.016Z,1.20
2023-03-25T13:16:10.715Z,1.10
2023-03-25T13:19:03.347Z,1.10
2023-03-25T13:21:56.729Z,1.00
2023-03-25T13:24:49.711Z,1.20
2023-03-25T13:27:42.564Z,1.13
2023-03-25T13:30:34.973Z,1.20
2023-03-25T13:33:26.188Z,1.20
2023-03-25T13:36:20.560Z,1.20
2023-03-25T13:39:17.320Z,1.53
2023-03-25T13:42:14.459Z,1.50
2023-03-25T13:45:03.618Z,1.20
2023-03-25T13:47:55.336Z,1.50
2023-03-25T13:50:42.938Z,1.03
2023-03-25T13:53:34.611Z,1.40
2023-03-25T13:57:06.602Z,1.43
2023-03-25T14:00:23.013Z,1.00
2023-03-25T14:03:53.217Z,1.17
2023-03-25T14:06:59.907Z,1.20
2023-03-25T14:10:26.295Z,1.23
2023-03-25T14:13:18.772Z,1.20
2023-03-25T14:16:09.803Z,1.57
2023-03-25T14:19:02.477Z,1.20
2023-03-25T14:21:51.208Z,0.93
2023-03-25T14:24:38.172Z,1.00
2023-03-25T14:27:29.558Z,0.93
2023-03-25T14:30:22.336Z,0.97
2023-03-25T14:33:10.956Z,0.80
2023-03-25T14:35:57.763Z,0.93
2023-03-25T14:38:55.129Z,1.00
2023-03-25T14:41:59.515Z,1.23
2023-03-25T14:44:49.937Z,0.90
2023-03-25T14:47:38.238Z,1.37
2023-03-25T14:50:34.805Z,1.30
2023-03-25T14:53:21.948Z,1.40
2023-03-25T14:56:16.682Z,1.17
2023-03-25T14:59:10.550Z,1.13
2023-03-25T15:02:04.335Z,1.23
2023-03-25T15:04:58.214Z,1.40
2023-03-25T15:07:48.267Z,1.30
2023-03-25T15:10:38.055Z,1.53
2023-03-25T15:13:28.423Z,1.20
2023-03-25T15:16:19.979Z,1.47
2023-03-25T15:19:12.167Z,1.50
2023-03-25T15:22:20.664Z,1.50
2023-03-25T15:25:16.230Z,1.30
2023-03-25T15:28:20.267Z,1.40
2023-03-25T15:31:24.740Z,1.53
2023-03-25T15:34:24.895Z,1.80
2023-03-25T15:37:45.752Z,1.63
2023-03-25T15:40:45.464Z,1.77
2023-03-25T15:44:06.920Z,1.30
2023-03-25T15:47:15.810Z,1.40
2023-03-25T15:50:36.333Z,1.63
2023-03-25T15:53:49.305Z,1.50
2023-03-25T15:56:41.930Z,1.60
2023-03-25T15:59:35.012Z,1.30
2023-03-25T16:02:29.771Z,1.60
2023-03-25T16:05:18.205Z,1.60
2023-03-25T16:08:10.274Z,1.50
2023-03-25T16:10:58.205Z,1.73
2023-03-25T16:13:44.781Z,1.50
2023-03-25T16:16:36.083Z,1.77
2023-03-25T16:19:25.766Z,2.07
2023-03-25T16:22:18.953Z,1.77
2023-03-25T16:25:14.223Z,1.40
2023-03-25T16:28:04.411Z,1.37
2023-03-25T16:30:53.976Z,1.37
2023-03-25T16:33:41.256Z,1.53
2023-03-25T16:36:28.329Z,1.50
2023-03-25T16:39:16.037Z,1.73
2023-03-25T16:42:06.403Z,2.03
2023-03-25T16:44:55.202Z,1.53
2023-03-25T16:47:42.788Z,1.70
2023-03-25T16:50:31.052Z,1.60
2023-03-25T16:53:19.349Z,1.50
2023-03-25T16:56:30.373Z,1.17
2023-03-25T16:59:21.485Z,1.50
2023-03-25T17:02:26.282Z,1.23
2023-03-25T17:05:18.960Z,1.10
2023-03-25T17:08:10.515Z,1.20
2023-03-25T17:10:59.530Z,1.50
2023-03-25T17:13:50.909Z,2.40
2023-03-25T17:16:50.805Z,1.90
2023-03-25T17:19:47.668Z,1.73
2023-03-25T17:22:35.887Z,1.90
2023-03-25T17:25:27.889Z,2.00
2023-03-25T17:28:29.624Z,1.90
2023-03-25T17:31:28.154Z,1.83
2023-03-25T17:34:19.258Z,1.90
2023-03-25T17:37:08.485Z,1.90
2023-03-25T17:39:55.136Z,1.97
2023-03-25T17:42:42.369Z,2.20
2023-03-25T17:45:29.236Z,1.90
2023-03-25T17:48:17.286Z,1.43
2023-03-25T17:51:04.126Z,1.77
2023-03-25T17:53:52.572Z,1.47
2023-03-25T17:56:45.082Z,1.50
2023-03-25T17:59:32.349Z,1.80
2023-03-25T18:02:19.147Z,1.77
2023-03-25T18:05:07.283Z,1.60
2023-03-25T18:07:53.689Z,1.50
2023-03-25T18:10:42.721Z,1.90
2023-03-25T18:13:29.378Z,1.87
2023-03-25T18:16:16.743Z,2.03
2023-03-25T18:19:03.645Z,2.10
2023-03-25T18:21:51.136Z,1.90
2023-03-25T18:24:39.299Z,1.90
2023-03-25T18:27:40.687Z,1.60
2023-03-25T18:30:34.733Z,1.70
2023-03-25T18:33:22.149Z,1.70
2023-03-25T18:36:10.426Z,1.60
2023-03-25T18:38:57.201Z,1.90
2023-03-25T18:41:44.323Z,1.90
2023-03-25T18:44:32.519Z,1.67
2023-03-25T18:47:19.668Z,1.80
2023-03-25T18:50:16.880Z,2.10
2023-03-25T18:53:05.026Z,2.20
2023-03-25T18:55:52.485Z,2.10
2023-03-25T18:58:39.263Z,2.00
2023-03-25T19:01:27.675Z,2.40
2023-03-25T19:04:14.487Z,2.20
2023-03-25T19:07:01.298Z,2.80
2023-03-25T19:09:48.080Z,2.90
2023-03-25T19:12:34.756Z,2.57
2023-03-25T19:15:25.067Z,2.70
2023-03-25T19:18:18.132Z,2.53
2023-03-25T19:21:07.024Z,3.40
2023-03-25T19:23:53.646Z,3.03
2023-03-25T19:26:40.560Z,2.77
2023-03-25T19:29:27.827Z,3.40
2023-03-25T19:32:16.081Z,3.20
2023-03-25T19:35:05.507Z,3.70
2023-03-25T19:37:52.360Z,2.93
2023-03-25T19:40:39.368Z,2.53
2023-03-25T19:43:26.332Z,2.80
2023-03-25T19:46:13.105Z,2.50
2023-03-25T19:49:00.050Z,1.93
2023-03-25T19:51:48.262Z,2.30
2023-03-25T19:54:35.076Z,2.00
2023-03-25T19:57:21.670Z,1.70
2023-03-25T20:00:12.684Z,2.23
2023-03-25T20:03:01.842Z,1.70
2023-03-25T20:05:49.070Z,1.50
2023-03-25T20:08:37.151Z,1.63
2023-03-25T20:11:24.082Z,1.77
2023-03-25T20:14:10.614Z,1.43
2023-03-25T20:16:57.632Z,1.60
2023-03-25T20:19:44.457Z,1.60
2023-03-25T20:22:32.708Z,1.60
2023-03-25T20:25:21.426Z,1.60
2023-03-25T20:28:08.260Z,1.27
2023-03-25T20:30:55.440Z,1.40
2023-03-25T20:33:41.937Z,1.70
2023-03-25T20:36:28.701Z,1.77
2023-03-25T20:39:15.638Z,1.50
2023-03-25T20:42:04.758Z,1.70
2023-03-25T20:44:51.407Z,1.67
2023-03-25T20:47:39.858Z,1.43
2023-03-25T20:50:27.323Z,1.30
2023-03-25T20:53:13.803Z,1.43
2023-03-25T20:56:02.021Z,1.50
2023-03-25T20:58:50.551Z,1.23
2023-03-25T21:01:37.446Z,1.10
2023-03-25T21:04:25.177Z,1.83
2023-03-25T21:07:11.639Z,1.60
2023-03-25T21:09:59.183Z,1.70
2023-03-25T21:12:45.587Z,1.20
2023-03-25T21:15:33.759Z,1.60
2023-03-25T21:18:23.088Z,1.50
2023-03-25T21:21:10.032Z,1.80
2023-03-25T21:23:57.022Z,1.60
2023-03-25T21:26:43.808Z,1.53
2023-03-25T21:29:30.936Z,1.57
2023-03-25T21:32:18.885Z,1.60
2023-03-25T21:35:06.163Z,2.20
2023-03-25T21:37:52.989Z,1.60
2023-03-25T21:40:41.650Z,1.90
2023-03-25T21:43:28.728Z,1.20
2023-03-25T21:46:19.368Z,1.90
2023-03-25T21:49:08.878Z,1.93
2023-03-25T21:51:57.049Z,1.60
2023-03-25T21:54:44.375Z,1.60
2023-03-25T21:57:31.935Z,1.40
2023-03-25T22:00:19.804Z,1.37
2023-03-25T22:03:06.558Z,1.70
2023-03-25T22:05:54.810Z,1.80
2023-03-25T22:08:42.004Z,1.50
2023-03-25T22:11:30.269Z,1.80
2023-03-25T22:14:17.130Z,1.90
2023-03-25T22:17:03.892Z,1.63
2023-03-25T22:19:52.633Z,1.50
2023-03-25T22:22:43.582Z,2.30
2023-03-25T22:25:30.151Z,1.90
2023-03-25T22:28:16.819Z,2.00
2023-03-25T22:31:09.787Z,1.90
2023-03-25T22:33:58.566Z,1.80
2023-03-25T22:36:50.474Z,2.37
2023-03-25T22:39:39.325Z,2.07
2023-03-25T22:42:26.881Z,1.97
2023-03-25T22:45:13.498Z,2.57
2023-03-25T22:48:00.473Z,2.97
2023-03-25T22:50:47.260Z,2.10
2023-03-25T22:53:34.148Z,2.37
2023-03-25T22:56:23.580Z,1.90
2023-03-25T22:59:12.243Z,2.13
2023-03-25T23:01:59.090Z,2.20
2023-03-25T23:04:46.677Z,2.30
2023-03-25T23:07:33.232Z,2.23
2023-03-25T23:10:20.208Z,2.53
2023-03-25T23:13:08.476Z,1.93
2023-03-25T23:16:00.050Z,2.43
2023-03-25T23:18:47.717Z,2.17
2023-03-25T23:21:35.283Z,2.20
2023-03-25T23:24:22.325Z,2.30
2023-03-25T23:27:11.678Z,2.00
2023-03-25T23:29:59.454Z,2.30
2023-03-25T23:32:46.223Z,2.10
2023-03-25T23:35:32.860Z,1.87
2023-03-25T23:38:19.465Z,2.30
2023-03-25T23:41:08.418Z,2.03
2023-03-25T23:43:56.138Z,2.30
2023-03-25T23:46:44.954Z,2.07
2023-03-25T23:49:33.370Z,2.17
2023-03-25T23:52:19.888Z,1.70
2023-03-25T23:55:07.700Z,2.40
2023-03-25T23:57:55.533Z,1.63
